Terminal Aerodrome Forecast
Issued by NWS Sioux Falls, SD

Home | Current Version | Previous Version | Graphics & Text | Print | Product List | Glossary On
Versions: 1 2 3 4 5 6 7 8 9 10 11 12 13 14 15 16
000
FTUS43 KFSD 201729 AAA
TAFSUX
TAF AMD
KSUX 201729Z 2017/2118 23011KT 5SM BR OVC015
     FM201900 25011KT 5SM BR OVC025
     FM202000 29012KT P6SM OVC040
     FM210100 31009KT P6SM SCT200
     FM211200 17004KT P6SM SKC
     FM211700 20009KT P6SM FEW250=

USA.gov is the U.S. government's official web portal to all federal, state and local government web resources and services.